sensor_id;sensor_type;location;lat;lon;timestamp;temperature;humidity
5258;DHT22;2651;51.594;9.928;2022-11-20T00:01:23;-3.20;1.00
5258;DHT22;2651;51.594;9.928;2022-11-20T00:02:24;-3.20;1.00
5258;DHT22;2651;51.594;9.928;2022-11-20T00:03:26;-3.20;1.00
5258;DHT22;2651;51.594;9.928;2022-11-20T00:04:28;-3.20;1.00
5258;DHT22;2651;51.594;9.928;2022-11-20T00:05:32;-3.20;1.00
5258;DHT22;2651;51.594;9.928;2022-11-20T00:06:34;-3.20;1.00
5258;DHT22;2651;51.594;9.928;2022-11-20T00:07:35;-3.10;1.00
5258;DHT22;2651;51.594;9.928;2022-11-20T00:08:37;-3.10;1.00
5258;DHT22;2651;51.594;9.928;2022-11-20T00:09:39;-3.20;1.00
5258;DHT22;2651;51.594;9.928;2022-11-20T00:10:40;-3.20;1.00
5258;DHT22;2651;51.594;9.928;2022-11-20T00:11:42;-3.30;99.90
5258;DHT22;2651;51.594;9.928;2022-11-20T00:12:44;-3.30;99.90
5258;DHT22;2651;51.594;9.928;2022-11-20T00:13:51;-3.20;1.00
5258;DHT22;2651;51.594;9.928;2022-11-20T00:14:52;-3.20;1.00
5258;DHT22;2651;51.594;9.928;2022-11-20T00:15:58;-3.20;1.00
5258;DHT22;2651;51.594;9.928;2022-11-20T00:17:00;-3.30;99.90
5258;DHT22;2651;51.594;9.928;2022-11-20T00:18:02;-3.30;99.90
5258;DHT22;2651;51.594;9.928;2022-11-20T00:19:03;-3.30;99.90
5258;DHT22;2651;51.594;9.928;2022-11-20T00:20:05;-3.30;1.00
5258;DHT22;2651;51.594;9.928;2022-11-20T00:21:11;-3.30;99.90
5258;DHT22;2651;51.594;9.928;2022-11-20T00:22:13;-3.50;99.90
5258;DHT22;2651;51.594;9.928;2022-11-20T00:23:15;-3.50;99.90
5258;DHT22;2651;51.594;9.928;2022-11-20T00:24:16;-3.60;1.00
5258;DHT22;2651;51.594;9.928;2022-11-20T00:25:18;-3.60;1.00
5258;DHT22;2651;51.594;9.928;2022-11-20T00:26:20;-3.60;1.00
5258;DHT22;2651;51.594;9.928;2022-11-20T00:27:22;-3.60;1.00
5258;DHT22;2651;51.594;9.928;2022-11-20T00:28:24;-3.60;1.00
5258;DHT22;2651;51.594;9.928;2022-11-20T00:29:26;-3.60;1.00
5258;DHT22;2651;51.594;9.928;2022-11-20T00:30:27;-3.60;1.00
5258;DHT22;2651;51.594;9.928;2022-11-20T00:31:30;-3.60;1.00
5258;DHT22;2651;51.594;9.928;2022-11-20T00:32:32;-3.50;1.00
5258;DHT22;2651;51.594;9.928;2022-11-20T00:33:33;-3.50;1.00
5258;DHT22;2651;51.594;9.928;2022-11-20T00:34:35;-3.50;1.00
5258;DHT22;2651;51.594;9.928;2022-11-20T00:35:37;-3.50;1.00
5258;DHT22;2651;51.594;9.928;2022-11-20T00:36:38;-3.50;1.00
5258;DHT22;2651;51.594;9.928;2022-11-20T00:37:40;-3.60;1.00
5258;DHT22;2651;51.594;9.928;2022-11-20T00:38:42;-3.60;1.00
5258;DHT22;2651;51.594;9.928;2022-11-20T00:39:44;-3.50;1.00
5258;DHT22;2651;51.594;9.928;2022-11-20T00:40:46;-3.50;1.00
5258;DHT22;2651;51.594;9.928;2022-11-20T00:41:55;-3.50;1.00
5258;DHT22;2651;51.594;9.928;2022-11-20T00:42:56;-3.50;1.00
5258;DHT22;2651;51.594;9.928;2022-11-20T00:43:58;-3.40;1.00
5258;DHT22;2651;51.594;9.928;2022-11-20T00:45:00;-3.40;1.00
5258;DHT22;2651;51.594;9.928;2022-11-20T00:46:10;-3.40;1.00
5258;DHT22;2651;51.594;9.928;2022-11-20T00:47:13;-3.50;1.00
5258;DHT22;2651;51.594;9.928;2022-11-20T00:48:15;-3.40;1.00
5258;DHT22;2651;51.594;9.928;2022-11-20T00:49:17;-3.40;1.00
5258;DHT22;2651;51.594;9.928;2022-11-20T00:50:19;-3.40;1.00
5258;DHT22;2651;51.594;9.928;2022-11-20T00:51:23;-3.40;99.90
5258;DHT22;2651;51.594;9.928;2022-11-20T00:52:25;-3.40;99.90
5258;DHT22;2651;51.594;9.928;2022-11-20T00:53:26;-3.40;99.90
5258;DHT22;2651;51.594;9.928;2022-11-20T00:54:28;-3.40;99.90
5258;DHT22;2651;51.594;9.928;2022-11-20T00:55:30;-3.40;99.90
5258;DHT22;2651;51.594;9.928;2022-11-20T00:56:31;-3.50;99.90
5258;DHT22;2651;51.594;9.928;2022-11-20T00:57:33;-3.50;13.90
5258;DHT22;2651;51.594;9.928;2022-11-20T00:58:37;-3.50;99.90
5258;DHT22;2651;51.594;9.928;2022-11-20T00:59:39;-3.60;99.90
5258;DHT22;2651;51.594;9.928;2022-11-20T01:00:40;-3.50;1.00
5258;DHT22;2651;51.594;9.928;2022-11-20T01:01:42;-3.50;1.00
5258;DHT22;2651;51.594;9.928;2022-11-20T01:02:44;-3.50;1.00
5258;DHT22;2651;51.594;9.928;2022-11-20T01:03:48;-3.50;1.00
5258;DHT22;2651;51.594;9.928;2022-11-20T01:04:50;-3.50;1.00
5258;DHT22;2651;51.594;9.928;2022-11-20T01:05:52;-3.50;1.00
5258;DHT22;2651;51.594;9.928;2022-11-20T01:06:53;-3.50;1.00
5258;DHT22;2651;51.594;9.928;2022-11-20T01:07:55;-3.50;1.00
5258;DHT22;2651;51.594;9.928;2022-11-20T01:08:59;-3.50;1.00
5258;DHT22;2651;51.594;9.928;2022-11-20T01:10:02;-3.50;99.90
5258;DHT22;2651;51.594;9.928;2022-11-20T01:11:12;-3.50;99.90
5258;DHT22;2651;51.594;9.928;2022-11-20T01:12:14;-3.50;99.90
5258;DHT22;2651;51.594;9.928;2022-11-20T01:13:15;-3.50;99.90
5258;DHT22;2651;51.594;9.928;2022-11-20T01:14:35;-3.50;38.10
5258;DHT22;2651;51.594;9.928;2022-11-20T01:15:37;-3.60;1.00
5258;DHT22;2651;51.594;9.928;2022-11-20T01:16:41;-3.70;99.90
5258;DHT22;2651;51.594;9.928;2022-11-20T01:17:43;-3.80;50.00
5258;DHT22;2651;51.594;9.928;2022-11-20T01:18:48;-3.80;47.00
5258;DHT22;2651;51.594;9.928;2022-11-20T01:19:50;-3.90;1.00
5258;DHT22;2651;51.594;9.928;2022-11-20T01:20:52;-3.90;1.00
5258;DHT22;2651;51.594;9.928;2022-11-20T01:21:54;-3.90;1.00
5258;DHT22;2651;51.594;9.928;2022-11-20T01:22:56;-4.00;1.00
5258;DHT22;2651;51.594;9.928;2022-11-20T01:23:58;-4.10;1.40
5258;DHT22;2651;51.594;9.928;2022-11-20T01:25:00;-4.10;99.90
5258;DHT22;2651;51.594;9.928;2022-11-20T01:26:03;-4.20;99.90
5258;DHT22;2651;51.594;9.928;2022-11-20T01:27:05;-4.20;1.00
5258;DHT22;2651;51.594;9.928;2022-11-20T01:28:07;-4.20;1.00
5258;DHT22;2651;51.594;9.928;2022-11-20T01:29:14;-4.10;1.00
5258;DHT22;2651;51.594;9.928;2022-11-20T01:30:15;-4.10;1.00
5258;DHT22;2651;51.594;9.928;2022-11-20T01:31:44;-4.00;1.00
5258;DHT22;2651;51.594;9.928;2022-11-20T01:32:45;-3.90;1.00
5258;DHT22;2651;51.594;9.928;2022-11-20T01:33:49;-3.90;1.00
5258;DHT22;2651;51.594;9.928;2022-11-20T01:34:51;-3.90;1.00
5258;DHT22;2651;51.594;9.928;2022-11-20T01:35:53;-3.90;99.90
5258;DHT22;2651;51.594;9.928;2022-11-20T01:36:55;-3.90;99.90
5258;DHT22;2651;51.594;9.928;2022-11-20T01:37:56;-3.90;99.90
5258;DHT22;2651;51.594;9.928;2022-11-20T01:39:00;-3.90;99.90
5258;DHT22;2651;51.594;9.928;2022-11-20T01:40:02;-3.80;99.90
5258;DHT22;2651;51.594;9.928;2022-11-20T01:41:05;-3.90;99.90
5258;DHT22;2651;51.594;9.928;2022-11-20T01:42:07;-3.90;1.00
5258;DHT22;2651;51.594;9.928;2022-11-20T01:43:28;-3.90;1.00
5258;DHT22;2651;51.594;9.928;2022-11-20T01:44:48;-3.80;1.00
5258;DHT22;2651;51.594;9.928;2022-11-20T01:47:01;-3.80;1.00
5258;DHT22;2651;51.594;9.928;2022-11-20T01:48:03;-3.80;1.00
5258;DHT22;2651;51.594;9.928;2022-11-20T01:49:19;-3.80;1.00
5258;DHT22;2651;51.594;9.928;2022-11-20T01:50:24;-3.70;1.00
5258;DHT22;2651;51.594;9.928;2022-11-20T01:52:47;-3.80;1.00
5258;DHT22;2651;51.594;9.928;2022-11-20T01:53:53;-3.80;1.00
5258;DHT22;2651;51.594;9.928;2022-11-20T01:55:13;-3.80;1.00
5258;DHT22;2651;51.594;9.928;2022-11-20T01:56:16;-3.80;1.00
5258;DHT22;2651;51.594;9.928;2022-11-20T01:57:20;-3.80;1.00
5258;DHT22;2651;51.594;9.928;2022-11-20T01:58:29;-3.80;1.00
5258;DHT22;2651;51.594;9.928;2022-11-20T01:59:31;-3.80;1.00
5258;DHT22;2651;51.594;9.928;2022-11-20T02:00:33;-3.80;1.00
5258;DHT22;2651;51.594;9.928;2022-11-20T02:01:35;-3.80;1.00
5258;DHT22;2651;51.594;9.928;2022-11-20T02:02:37;-3.80;1.00
5258;DHT22;2651;51.594;9.928;2022-11-20T02:03:41;-3.80;1.00
5258;DHT22;2651;51.594;9.928;2022-11-20T02:04:44;-3.90;1.00
5258;DHT22;2651;51.594;9.928;2022-11-20T02:07:05;-3.80;1.00
5258;DHT22;2651;51.594;9.928;2022-11-20T02:08:07;-3.90;1.00
5258;DHT22;2651;51.594;9.928;2022-11-20T02:09:09;-3.90;1.00
5258;DHT22;2651;51.594;9.928;2022-11-20T02:10:11;-3.80;1.00
5258;DHT22;2651;51.594;9.928;2022-11-20T02:11:12;-3.90;1.00
5258;DHT22;2651;51.594;9.928;2022-11-20T02:12:14;-3.90;1.00
5258;DHT22;2651;51.594;9.928;2022-11-20T02:13:36;-3.90;99.90
5258;DHT22;2651;51.594;9.928;2022-11-20T02:14:47;-3.90;99.90
5258;DHT22;2651;51.594;9.928;2022-11-20T02:15:49;-3.90;99.90
5258;DHT22;2651;51.594;9.928;2022-11-20T02:16:51;-3.90;99.90
5258;DHT22;2651;51.594;9.928;2022-11-20T02:17:53;-3.90;99.90
5258;DHT22;2651;51.594;9.928;2022-11-20T02:18:58;-3.90;99.90
5258;DHT22;2651;51.594;9.928;2022-11-20T02:20:00;-4.00;99.90
5258;DHT22;2651;51.594;9.928;2022-11-20T02:22:37;-4.00;99.90
5258;DHT22;2651;51.594;9.928;2022-11-20T02:24:59;-4.00;1.00
5258;DHT22;2651;51.594;9.928;2022-11-20T02:26:06;-4.00;1.00
5258;DHT22;2651;51.594;9.928;2022-11-20T02:27:13;-4.10;1.00
5258;DHT22;2651;51.594;9.928;2022-11-20T02:28:17;-4.10;1.00
5258;DHT22;2651;51.594;9.928;2022-11-20T02:29:27;-4.10;1.00
5258;DHT22;2651;51.594;9.928;2022-11-20T02:30:29;-4.10;1.00
5258;DHT22;2651;51.594;9.928;2022-11-20T02:31:40;-4.00;1.00
5258;DHT22;2651;51.594;9.928;2022-11-20T02:32:41;-4.10;1.00
5258;DHT22;2651;51.594;9.928;2022-11-20T02:33:43;-4.10;1.00
5258;DHT22;2651;51.594;9.928;2022-11-20T02:34:45;-4.10;1.00
5258;DHT22;2651;51.594;9.928;2022-11-20T02:35:47;-4.00;1.00
5258;DHT22;2651;51.594;9.928;2022-11-20T02:36:50;-4.00;1.00
5258;DHT22;2651;51.594;9.928;2022-11-20T02:37:55;-4.00;1.00
5258;DHT22;2651;51.594;9.928;2022-11-20T02:38:57;-4.00;1.00
5258;DHT22;2651;51.594;9.928;2022-11-20T02:39:59;-4.10;1.00
5258;DHT22;2651;51.594;9.928;2022-11-20T02:41:01;-4.00;1.00
5258;DHT22;2651;51.594;9.928;2022-11-20T02:42:03;-4.10;1.00
5258;DHT22;2651;51.594;9.928;2022-11-20T02:43:04;-4.10;1.00
5258;DHT22;2651;51.594;9.928;2022-11-20T02:44:06;-4.10;1.00
5258;DHT22;2651;51.594;9.928;2022-11-20T02:45:08;-4.10;1.00
5258;DHT22;2651;51.594;9.928;2022-11-20T02:46:10;-4.10;1.00
5258;DHT22;2651;51.594;9.928;2022-11-20T02:47:12;-4.10;1.00
5258;DHT22;2651;51.594;9.928;2022-11-20T02:48:13;-4.10;1.00
5258;DHT22;2651;51.594;9.928;2022-11-20T02:49:15;-4.20;1.00
5258;DHT22;2651;51.594;9.928;2022-11-20T02:50:18;-4.20;1.00
5258;DHT22;2651;51.594;9.928;2022-11-20T02:51:20;-4.20;1.00
5258;DHT22;2651;51.594;9.928;2022-11-20T02:52:22;-4.20;1.00
5258;DHT22;2651;51.594;9.928;2022-11-20T02:53:23;-4.30;1.00
5258;DHT22;2651;51.594;9.928;2022-11-20T02:54:25;-4.20;1.00
5258;DHT22;2651;51.594;9.928;2022-11-20T02:55:27;-4.20;1.00
5258;DHT22;2651;51.594;9.928;2022-11-20T02:56:29;-4.20;1.00
5258;DHT22;2651;51.594;9.928;2022-11-20T02:57:30;-4.20;1.00
5258;DHT22;2651;51.594;9.928;2022-11-20T02:58:32;-4.20;1.00
5258;DHT22;2651;51.594;9.928;2022-11-20T02:59:33;-4.20;1.00
5258;DHT22;2651;51.594;9.928;2022-11-20T03:00:36;-4.20;1.00
5258;DHT22;2651;51.594;9.928;2022-11-20T03:01:38;-4.20;1.00
5258;DHT22;2651;51.594;9.928;2022-11-20T03:02:40;-4.30;1.00
5258;DHT22;2651;51.594;9.928;2022-11-20T03:03:41;-4.30;1.00
5258;DHT22;2651;51.594;9.928;2022-11-20T03:04:43;-4.30;1.00
5258;DHT22;2651;51.594;9.928;2022-11-20T03:05:45;-4.30;1.00
5258;DHT22;2651;51.594;9.928;2022-11-20T03:06:46;-4.30;1.00
5258;DHT22;2651;51.594;9.928;2022-11-20T03:07:48;-4.40;1.00
5258;DHT22;2651;51.594;9.928;2022-11-20T03:08:50;-4.30;1.00
5258;DHT22;2651;51.594;9.928;2022-11-20T03:09:51;-4.30;1.00
5258;DHT22;2651;51.594;9.928;2022-11-20T03:10:53;-4.40;1.00
5258;DHT22;2651;51.594;9.928;2022-11-20T03:11:55;-4.40;1.00
5258;DHT22;2651;51.594;9.928;2022-11-20T03:12:56;-4.40;1.00
5258;DHT22;2651;51.594;9.928;2022-11-20T03:14:02;-4.40;1.00
5258;DHT22;2651;51.594;9.928;2022-11-20T03:15:04;-4.40;1.00
5258;DHT22;2651;51.594;9.928;2022-11-20T03:16:14;-4.40;1.00
5258;DHT22;2651;51.594;9.928;2022-11-20T03:17:16;-4.40;1.00
5258;DHT22;2651;51.594;9.928;2022-11-20T03:18:18;-4.40;1.00
5258;DHT22;2651;51.594;9.928;2022-11-20T03:19:20;-4.40;1.00
5258;DHT22;2651;51.594;9.928;2022-11-20T03:20:22;-4.40;1.00
5258;DHT22;2651;51.594;9.928;2022-11-20T03:21:24;-4.40;1.00
5258;DHT22;2651;51.594;9.928;2022-11-20T03:22:29;-4.40;1.00
5258;DHT22;2651;51.594;9.928;2022-11-20T03:23:32;-4.40;1.00
5258;DHT22;2651;51.594;9.928;2022-11-20T03:24:33;-4.40;1.00
5258;DHT22;2651;51.594;9.928;2022-11-20T03:25:35;-4.40;1.00
5258;DHT22;2651;51.594;9.928;2022-11-20T03:26:37;-4.50;1.00
5258;DHT22;2651;51.594;9.928;2022-11-20T03:27:39;-4.50;1.00
5258;DHT22;2651;51.594;9.928;2022-11-20T03:28:45;-4.50;1.00
5258;DHT22;2651;51.594;9.928;2022-11-20T03:29:47;-4.50;1.00
5258;DHT22;2651;51.594;9.928;2022-11-20T03:30:49;-4.50;1.00
5258;DHT22;2651;51.594;9.928;2022-11-20T03:31:50;-4.50;1.00
5258;DHT22;2651;51.594;9.928;2022-11-20T03:32:53;-4.50;1.00
5258;DHT22;2651;51.594;9.928;2022-11-20T03:33:57;-4.50;1.00
5258;DHT22;2651;51.594;9.928;2022-11-20T03:34:59;-4.50;1.00
5258;DHT22;2651;51.594;9.928;2022-11-20T03:36:02;-4.50;1.00
5258;DHT22;2651;51.594;9.928;2022-11-20T03:37:04;-4.50;1.00
5258;DHT22;2651;51.594;9.928;2022-11-20T03:38:06;-4.50;1.00
5258;DHT22;2651;51.594;9.928;2022-11-20T03:39:08;-4.50;1.00
5258;DHT22;2651;51.594;9.928;2022-11-20T03:40:10;-4.40;1.00
5258;DHT22;2651;51.594;9.928;2022-11-20T03:41:22;-4.40;1.00
5258;DHT22;2651;51.594;9.928;2022-11-20T03:42:24;-4.50;1.00
5258;DHT22;2651;51.594;9.928;2022-11-20T03:43:53;-4.40;1.00
5258;DHT22;2651;51.594;9.928;2022-11-20T03:44:55;-4.40;1.00
5258;DHT22;2651;51.594;9.928;2022-11-20T03:45:57;-4.40;1.00
5258;DHT22;2651;51.594;9.928;2022-11-20T03:46:58;-4.30;1.00
5258;DHT22;2651;51.594;9.928;2022-11-20T03:48:00;-4.30;1.00
5258;DHT22;2651;51.594;9.928;2022-11-20T03:49:02;-4.30;1.00
5258;DHT22;2651;51.594;9.928;2022-11-20T03:50:05;-4.30;1.00
5258;DHT22;2651;51.594;9.928;2022-11-20T03:51:15;-4.30;1.00
5258;DHT22;2651;51.594;9.928;2022-11-20T03:52:17;-4.30;1.00
5258;DHT22;2651;51.594;9.928;2022-11-20T03:53:19;-4.30;99.90
5258;DHT22;2651;51.594;9.928;2022-11-20T03:54:21;-4.30;99.90
5258;DHT22;2651;51.594;9.928;2022-11-20T03:55:22;-4.30;99.90
5258;DHT22;2651;51.594;9.928;2022-11-20T03:56:27;-4.30;99.90
5258;DHT22;2651;51.594;9.928;2022-11-20T03:57:29;-4.40;99.90
5258;DHT22;2651;51.594;9.928;2022-11-20T03:58:32;-4.40;99.90
5258;DHT22;2651;51.594;9.928;2022-11-20T03:59:33;-4.50;99.90
5258;DHT22;2651;51.594;9.928;2022-11-20T04:00:35;-4.50;99.90
5258;DHT22;2651;51.594;9.928;2022-11-20T04:01:37;-4.60;1.00
5258;DHT22;2651;51.594;9.928;2022-11-20T04:02:39;-4.60;1.00
5258;DHT22;2651;51.594;9.928;2022-11-20T04:03:42;-4.60;1.00
5258;DHT22;2651;51.594;9.928;2022-11-20T04:04:44;-4.60;1.00
5258;DHT22;2651;51.594;9.928;2022-11-20T04:05:46;-4.60;1.00
5258;DHT22;2651;51.594;9.928;2022-11-20T04:06:47;-4.70;1.00
5258;DHT22;2651;51.594;9.928;2022-11-20T04:07:49;-4.60;1.00
5258;DHT22;2651;51.594;9.928;2022-11-20T04:08:51;-4.70;1.00
5258;DHT22;2651;51.594;9.928;2022-11-20T04:09:54;-4.70;1.00
5258;DHT22;2651;51.594;9.928;2022-11-20T04:10:56;-4.70;1.00
5258;DHT22;2651;51.594;9.928;2022-11-20T04:11:57;-4.60;1.00
5258;DHT22;2651;51.594;9.928;2022-11-20T04:12:59;-4.60;1.00
5258;DHT22;2651;51.594;9.928;2022-11-20T04:14:03;-4.60;1.00
5258;DHT22;2651;51.594;9.928;2022-11-20T04:15:05;-4.60;1.00
5258;DHT22;2651;51.594;9.928;2022-11-20T04:16:08;-4.50;1.00
5258;DHT22;2651;51.594;9.928;2022-11-20T04:17:10;-4.50;1.00
5258;DHT22;2651;51.594;9.928;2022-11-20T04:18:12;-4.60;1.00
5258;DHT22;2651;51.594;9.928;2022-11-20T04:19:16;-4.50;1.00
5258;DHT22;2651;51.594;9.928;2022-11-20T04:20:17;-4.50;1.00
5258;DHT22;2651;51.594;9.928;2022-11-20T04:21:19;-4.50;1.00
5258;DHT22;2651;51.594;9.928;2022-11-20T04:22:21;-4.60;1.00
5258;DHT22;2651;51.594;9.928;2022-11-20T04:23:23;-4.70;1.00
5258;DHT22;2651;51.594;9.928;2022-11-20T04:24:29;-4.70;1.00
5258;DHT22;2651;51.594;9.928;2022-11-20T04:25:31;-4.70;1.00
5258;DHT22;2651;51.594;9.928;2022-11-20T04:26:33;-4.60;1.00
5258;DHT22;2651;51.594;9.928;2022-11-20T04:27:35;-4.60;1.00
5258;DHT22;2651;51.594;9.928;2022-11-20T04:28:37;-4.60;1.00
5258;DHT22;2651;51.594;9.928;2022-11-20T04:29:39;-4.60;1.00
5258;DHT22;2651;51.594;9.928;2022-11-20T04:30:41;-4.60;1.00
5258;DHT22;2651;51.594;9.928;2022-11-20T04:31:43;-4.60;1.00
5258;DHT22;2651;51.594;9.928;2022-11-20T04:32:44;-4.70;1.00
5258;DHT22;2651;51.594;9.928;2022-11-20T04:33:46;-4.70;1.00
5258;DHT22;2651;51.594;9.928;2022-11-20T04:34:48;-4.60;1.00
5258;DHT22;2651;51.594;9.928;2022-11-20T04:35:49;-4.60;1.00
5258;DHT22;2651;51.594;9.928;2022-11-20T04:36:51;-4.60;1.00
5258;DHT22;2651;51.594;9.928;2022-11-20T04:37:52;-4.60;1.00
5258;DHT22;2651;51.594;9.928;2022-11-20T04:38:57;-4.60;1.00
5258;DHT22;2651;51.594;9.928;2022-11-20T04:39:59;-4.60;1.00
5258;DHT22;2651;51.594;9.928;2022-11-20T04:41:02;-4.60;1.00
5258;DHT22;2651;51.594;9.928;2022-11-20T04:42:04;-4.60;1.00
5258;DHT22;2651;51.594;9.928;2022-11-20T04:43:25;-4.70;1.00
5258;DHT22;2651;51.594;9.928;2022-11-20T04:44:26;-4.70;1.00
5258;DHT22;2651;51.594;9.928;2022-11-20T04:45:28;-4.70;1.00
5258;DHT22;2651;51.594;9.928;2022-11-20T04:46:32;-4.80;1.00
5258;DHT22;2651;51.594;9.928;2022-11-20T04:47:34;-4.80;1.00
5258;DHT22;2651;51.594;9.928;2022-11-20T04:48:36;-4.90;1.00
5258;DHT22;2651;51.594;9.928;2022-11-20T04:49:37;-4.90;1.00
5258;DHT22;2651;51.594;9.928;2022-11-20T04:50:40;-4.90;1.00
5258;DHT22;2651;51.594;9.928;2022-11-20T04:51:42;-4.90;1.00
5258;DHT22;2651;51.594;9.928;2022-11-20T04:52:43;-4.90;1.00
5258;DHT22;2651;51.594;9.928;2022-11-20T04:53:46;-4.90;1.00
5258;DHT22;2651;51.594;9.928;2022-11-20T04:54:47;-4.90;1.00
5258;DHT22;2651;51.594;9.928;2022-11-20T04:55:49;-5.00;1.00
5258;DHT22;2651;51.594;9.928;2022-11-20T04:56:51;-5.00;1.00
5258;DHT22;2651;51.594;9.928;2022-11-20T04:57:52;-5.00;10.80
5258;DHT22;2651;51.594;9.928;2022-11-20T04:58:54;-5.00;52.50
5258;DHT22;2651;51.594;9.928;2022-11-20T04:59:56;-5.00;65.50
5258;DHT22;2651;51.594;9.928;2022-11-20T05:01:05;-5.00;65.40
5258;DHT22;2651;51.594;9.928;2022-11-20T05:02:07;-5.00;59.80
5258;DHT22;2651;51.594;9.928;2022-11-20T05:03:09;-5.00;33.00
5258;DHT22;2651;51.594;9.928;2022-11-20T05:04:10;-5.00;1.00
5258;DHT22;2651;51.594;9.928;2022-11-20T05:05:12;-5.00;1.00
5258;DHT22;2651;51.594;9.928;2022-11-20T05:06:18;-5.10;1.00
5258;DHT22;2651;51.594;9.928;2022-11-20T05:07:20;-5.10;1.00
5258;DHT22;2651;51.594;9.928;2022-11-20T05:08:22;-5.10;1.00
5258;DHT22;2651;51.594;9.928;2022-11-20T05:09:23;-5.10;18.40
5258;DHT22;2651;51.594;9.928;2022-11-20T05:10:25;-5.10;22.20
5258;DHT22;2651;51.594;9.928;2022-11-20T05:11:27;-5.20;23.10
5258;DHT22;2651;51.594;9.928;2022-11-20T05:12:31;-5.10;54.30
5258;DHT22;2651;51.594;9.928;2022-11-20T05:13:33;-5.10;86.00
5258;DHT22;2651;51.594;9.928;2022-11-20T05:14:35;-5.10;94.80
5258;DHT22;2651;51.594;9.928;2022-11-20T05:15:37;-5.10;96.60
5258;DHT22;2651;51.594;9.928;2022-11-20T05:16:38;-5.10;96.30
5258;DHT22;2651;51.594;9.928;2022-11-20T05:17:40;-5.10;96.50
5258;DHT22;2651;51.594;9.928;2022-11-20T05:18:42;-5.10;97.80
5258;DHT22;2651;51.594;9.928;2022-11-20T05:19:43;-5.00;98.50
5258;DHT22;2651;51.594;9.928;2022-11-20T05:20:55;-5.00;99.90
5258;DHT22;2651;51.594;9.928;2022-11-20T05:21:56;-5.00;99.90
5258;DHT22;2651;51.594;9.928;2022-11-20T05:22:58;-4.90;76.40
5258;DHT22;2651;51.594;9.928;2022-11-20T05:24:00;-5.00;28.90
5258;DHT22;2651;51.594;9.928;2022-11-20T05:25:02;-5.00;32.70
5258;DHT22;2651;51.594;9.928;2022-11-20T05:26:04;-5.00;45.70
5258;DHT22;2651;51.594;9.928;2022-11-20T05:27:06;-5.00;87.80
5258;DHT22;2651;51.594;9.928;2022-11-20T05:28:08;-5.00;92.40
5258;DHT22;2651;51.594;9.928;2022-11-20T05:29:11;-4.90;75.30
5258;DHT22;2651;51.594;9.928;2022-11-20T05:30:13;-5.00;46.20
5258;DHT22;2651;51.594;9.928;2022-11-20T05:31:20;-4.90;75.30
5258;DHT22;2651;51.594;9.928;2022-11-20T05:32:27;-4.90;86.50
5258;DHT22;2651;51.594;9.928;2022-11-20T05:33:29;-4.90;63.50
5258;DHT22;2651;51.594;9.928;2022-11-20T05:34:31;-4.90;57.20
5258;DHT22;2651;51.594;9.928;2022-11-20T05:35:33;-4.90;73.70
5258;DHT22;2651;51.594;9.928;2022-11-20T05:36:35;-4.90;95.70
5258;DHT22;2651;51.594;9.928;2022-11-20T05:37:36;-4.90;97.00
5258;DHT22;2651;51.594;9.928;2022-11-20T05:38:38;-4.80;99.90
5258;DHT22;2651;51.594;9.928;2022-11-20T05:39:40;-4.80;99.90
5258;DHT22;2651;51.594;9.928;2022-11-20T05:40:41;-4.80;99.90
5258;DHT22;2651;51.594;9.928;2022-11-20T05:41:43;-4.80;99.90
5258;DHT22;2651;51.594;9.928;2022-11-20T05:42:45;-4.80;91.60
5258;DHT22;2651;51.594;9.928;2022-11-20T05:43:47;-4.80;92.10
5258;DHT22;2651;51.594;9.928;2022-11-20T05:44:49;-4.80;83.50
5258;DHT22;2651;51.594;9.928;2022-11-20T05:45:54;-4.80;94.80
5258;DHT22;2651;51.594;9.928;2022-11-20T05:46:56;-4.80;74.50
5258;DHT22;2651;51.594;9.928;2022-11-20T05:47:59;-4.90;59.50
5258;DHT22;2651;51.594;9.928;2022-11-20T05:49:04;-4.90;50.90
5258;DHT22;2651;51.594;9.928;2022-11-20T05:50:05;-4.90;25.90
5258;DHT22;2651;51.594;9.928;2022-11-20T05:51:09;-4.90;30.00
5258;DHT22;2651;51.594;9.928;2022-11-20T05:52:11;-4.90;26.60
5258;DHT22;2651;51.594;9.928;2022-11-20T05:53:13;-4.90;22.70
5258;DHT22;2651;51.594;9.928;2022-11-20T05:54:15;-4.90;41.50
5258;DHT22;2651;51.594;9.928;2022-11-20T05:55:16;-5.00;51.50
5258;DHT22;2651;51.594;9.928;2022-11-20T05:56:20;-5.00;91.00
5258;DHT22;2651;51.594;9.928;2022-11-20T05:57:22;-4.90;99.90
5258;DHT22;2651;51.594;9.928;2022-11-20T05:58:24;-5.00;92.90
5258;DHT22;2651;51.594;9.928;2022-11-20T05:59:25;-5.00;83.70
5258;DHT22;2651;51.594;9.928;2022-11-20T06:00:27;-5.00;93.10
5258;DHT22;2651;51.594;9.928;2022-11-20T06:01:29;-5.00;94.90
5258;DHT22;2651;51.594;9.928;2022-11-20T06:02:30;-5.00;91.40
5258;DHT22;2651;51.594;9.928;2022-11-20T06:03:36;-5.00;91.50
5258;DHT22;2651;51.594;9.928;2022-11-20T06:04:38;-5.00;93.30
5258;DHT22;2651;51.594;9.928;2022-11-20T06:05:39;-5.10;73.90
5258;DHT22;2651;51.594;9.928;2022-11-20T06:06:41;-5.10;89.00
5258;DHT22;2651;51.594;9.928;2022-11-20T06:07:43;-5.10;96.70
5258;DHT22;2651;51.594;9.928;2022-11-20T06:08:45;-5.10;99.90
5258;DHT22;2651;51.594;9.928;2022-11-20T06:09:46;-5.10;99.90
5258;DHT22;2651;51.594;9.928;2022-11-20T06:10:48;-5.10;99.90
5258;DHT22;2651;51.594;9.928;2022-11-20T06:11:50;-5.00;99.90
5258;DHT22;2651;51.594;9.928;2022-11-20T06:12:51;-5.00;99.90
5258;DHT22;2651;51.594;9.928;2022-11-20T06:13:53;-5.00;99.90
5258;DHT22;2651;51.594;9.928;2022-11-20T06:14:54;-5.00;99.90
5258;DHT22;2651;51.594;9.928;2022-11-20T06:15:56;-5.00;99.90
5258;DHT22;2651;51.594;9.928;2022-11-20T06:16:58;-5.00;80.30
5258;DHT22;2651;51.594;9.928;2022-11-20T06:17:59;-5.10;45.80
5258;DHT22;2651;51.594;9.928;2022-11-20T06:19:01;-5.10;36.30
5258;DHT22;2651;51.594;9.928;2022-11-20T06:20:03;-5.10;53.60
5258;DHT22;2651;51.594;9.928;2022-11-20T06:21:07;-5.10;51.70
5258;DHT22;2651;51.594;9.928;2022-11-20T06:22:09;-5.10;49.90
5258;DHT22;2651;51.594;9.928;2022-11-20T06:23:11;-5.10;47.70
5258;DHT22;2651;51.594;9.928;2022-11-20T06:24:13;-5.10;43.90
5258;DHT22;2651;51.594;9.928;2022-11-20T06:25:15;-5.10;49.00
5258;DHT22;2651;51.594;9.928;2022-11-20T06:26:19;-5.10;55.40
5258;DHT22;2651;51.594;9.928;2022-11-20T06:27:21;-5.10;60.00
5258;DHT22;2651;51.594;9.928;2022-11-20T06:28:23;-5.10;90.10
5258;DHT22;2651;51.594;9.928;2022-11-20T06:29:24;-5.10;81.60
5258;DHT22;2651;51.594;9.928;2022-11-20T06:30:34;-5.10;67.20
5258;DHT22;2651;51.594;9.928;2022-11-20T06:31:36;-5.10;61.40
5258;DHT22;2651;51.594;9.928;2022-11-20T06:32:39;-5.20;76.00
5258;DHT22;2651;51.594;9.928;2022-11-20T06:33:41;-5.10;95.00
5258;DHT22;2651;51.594;9.928;2022-11-20T06:34:43;-5.20;87.90
5258;DHT22;2651;51.594;9.928;2022-11-20T06:35:45;-5.20;99.90
5258;DHT22;2651;51.594;9.928;2022-11-20T06:36:46;-5.10;99.90
5258;DHT22;2651;51.594;9.928;2022-11-20T06:37:48;-5.10;99.90
5258;DHT22;2651;51.594;9.928;2022-11-20T06:38:50;-5.10;99.10
5258;DHT22;2651;51.594;9.928;2022-11-20T06:39:52;-5.20;80.10
5258;DHT22;2651;51.594;9.928;2022-11-20T06:40:54;-5.10;94.20
5258;DHT22;2651;51.594;9.928;2022-11-20T06:41:56;-5.10;88.50
5258;DHT22;2651;51.594;9.928;2022-11-20T06:42:59;-5.10;49.20
5258;DHT22;2651;51.594;9.928;2022-11-20T06:44:03;-5.20;35.50
5258;DHT22;2651;51.594;9.928;2022-11-20T06:45:04;-5.10;51.70
5258;DHT22;2651;51.594;9.928;2022-11-20T06:46:06;-5.10;46.50
5258;DHT22;2651;51.594;9.928;2022-11-20T06:47:08;-5.10;36.40
5258;DHT22;2651;51.594;9.928;2022-11-20T06:48:10;-5.10;52.10
5258;DHT22;2651;51.594;9.928;2022-11-20T06:49:11;-5.10;20.60
5258;DHT22;2651;51.594;9.928;2022-11-20T06:50:13;-5.10;25.50
5258;DHT22;2651;51.594;9.928;2022-11-20T06:51:15;-5.10;17.90
5258;DHT22;2651;51.594;9.928;2022-11-20T06:52:16;-5.00;11.60
5258;DHT22;2651;51.594;9.928;2022-11-20T06:53:18;-5.00;12.50
5258;DHT22;2651;51.594;9.928;2022-11-20T06:54:20;-5.00;1.00
5258;DHT22;2651;51.594;9.928;2022-11-20T06:55:21;-5.10;1.00
5258;DHT22;2651;51.594;9.928;2022-11-20T06:56:23;-5.10;1.00
5258;DHT22;2651;51.594;9.928;2022-11-20T06:57:24;-5.10;1.00
5258;DHT22;2651;51.594;9.928;2022-11-20T06:58:27;-5.10;1.00
5258;DHT22;2651;51.594;9.928;2022-11-20T06:59:29;-5.10;1.00
5258;DHT22;2651;51.594;9.928;2022-11-20T07:00:31;-5.10;1.00
5258;DHT22;2651;51.594;9.928;2022-11-20T07:01:33;-5.10;1.00
5258;DHT22;2651;51.594;9.928;2022-11-20T07:02:35;-5.10;1.00